createdAt,value
2018-09-11T00:00:07.263Z,16.39
2018-09-11T00:01:07.454Z,16.38
2018-09-11T00:02:07.646Z,16.35
2018-09-11T00:03:07.843Z,16.31
2018-09-11T00:04:08.034Z,16.33
2018-09-11T00:05:08.222Z,16.27
2018-09-11T00:06:08.416Z,16.25
2018-09-11T00:07:08.608Z,16.14
2018-09-11T00:08:08.803Z,16.23
2018-09-11T00:09:09.023Z,16.17
2018-09-11T00:10:09.174Z,16.12
2018-09-11T00:11:09.359Z,16.07
2018-09-11T00:12:09.552Z,16.14
2018-09-11T00:13:09.748Z,16.20
2018-09-11T00:14:09.935Z,16.15
2018-09-11T00:15:10.131Z,16.08
2018-09-11T00:16:10.322Z,16.09
2018-09-11T00:17:10.522Z,16.04
2018-09-11T00:20:42.504Z,15.94
2018-09-11T00:21:42.685Z,15.89
2018-09-11T00:22:42.882Z,15.92
2018-09-11T00:23:43.073Z,15.84
2018-09-11T00:24:43.256Z,15.86
2018-09-11T00:25:43.445Z,15.89
2018-09-11T00:26:43.635Z,15.86
2018-09-11T00:27:43.829Z,15.87
2018-09-11T00:28:44.018Z,15.80
2018-09-11T00:29:44.229Z,15.80
2018-09-11T00:30:44.398Z,15.78
2018-09-11T00:31:44.590Z,15.76
2018-09-11T00:32:44.778Z,15.72
2018-09-11T00:33:44.968Z,15.76
2018-09-11T00:34:45.161Z,15.76
2018-09-11T00:35:45.346Z,15.82
2018-09-11T00:36:45.536Z,15.84
2018-09-11T00:37:45.733Z,15.86
2018-09-11T00:38:45.922Z,15.78
2018-09-11T00:39:46.115Z,15.72
2018-09-11T00:40:46.302Z,15.75
2018-09-11T00:41:46.491Z,15.75
2018-09-11T00:42:46.700Z,15.75
2018-09-11T00:43:46.892Z,15.74
2018-09-11T00:44:47.083Z,15.74
2018-09-11T00:45:47.269Z,15.75
2018-09-11T00:46:47.462Z,15.76
2018-09-11T00:47:47.652Z,15.74
2018-09-11T00:48:47.841Z,15.82
2018-09-11T00:49:48.037Z,15.68
2018-09-11T00:50:48.231Z,15.68
2018-09-11T00:51:48.421Z,15.64
2018-09-11T00:52:48.604Z,15.69
2018-09-11T00:53:48.796Z,15.71
2018-09-11T00:54:48.988Z,15.75
2018-09-11T00:55:49.176Z,15.71
2018-09-11T00:56:49.366Z,15.72
2018-09-11T00:57:49.556Z,15.72
2018-09-11T00:58:49.745Z,15.74
2018-09-11T00:59:49.936Z,15.74
2018-09-11T01:00:50.129Z,15.67
2018-09-11T01:01:50.316Z,15.67
2018-09-11T01:02:50.513Z,15.71
2018-09-11T01:03:50.700Z,15.65
2018-09-11T01:04:50.890Z,15.72
2018-09-11T01:05:51.078Z,15.72
2018-09-11T01:06:51.267Z,15.67
2018-09-11T01:07:51.459Z,15.69
2018-09-11T01:08:51.646Z,15.71
2018-09-11T01:09:51.835Z,15.71
2018-09-11T01:10:52.028Z,15.60
2018-09-11T01:11:52.214Z,15.60
2018-09-11T01:12:52.415Z,15.62
2018-09-11T01:13:52.599Z,15.71
2018-09-11T01:14:52.792Z,15.62
2018-09-11T01:15:52.980Z,15.64
2018-09-11T01:16:53.171Z,15.51
2018-09-11T01:17:53.357Z,15.59
2018-09-11T01:18:53.543Z,15.54
2018-09-11T01:19:53.733Z,15.43
2018-09-11T01:20:53.922Z,15.56
2018-09-11T01:21:54.114Z,15.41
2018-09-11T01:22:54.306Z,15.36
2018-09-11T01:23:54.494Z,15.35
2018-09-11T01:24:54.685Z,15.36
2018-09-11T01:25:54.876Z,15.34
2018-09-11T01:26:55.074Z,15.36
2018-09-11T01:27:55.265Z,15.39
2018-09-11T01:28:55.458Z,15.34
2018-09-11T01:29:55.665Z,15.41
2018-09-11T01:30:55.872Z,15.32
2018-09-11T01:31:56.064Z,15.28
2018-09-11T01:32:56.254Z,15.16
2018-09-11T01:33:56.441Z,15.19
2018-09-11T01:34:56.632Z,15.16
2018-09-11T01:35:56.824Z,15.17
2018-09-11T01:36:57.013Z,15.11
2018-09-11T01:37:57.204Z,15.11
2018-09-11T01:38:57.391Z,15.16
2018-09-11T01:39:57.585Z,15.17
2018-09-11T01:40:57.768Z,15.16
2018-09-11T01:41:57.960Z,15.17
2018-09-11T01:42:58.149Z,15.10
2018-09-11T01:43:58.340Z,15.13
2018-09-11T01:44:58.524Z,15.11
2018-09-11T01:45:58.731Z,15.07
2018-09-11T01:46:58.912Z,15.11
2018-09-11T01:47:59.098Z,15.02
2018-09-11T01:48:59.298Z,15.03
2018-09-11T01:49:59.484Z,15.14
2018-09-11T01:50:59.668Z,15.13
2018-09-11T01:51:59.863Z,15.10
2018-09-11T01:53:00.056Z,15.06
2018-09-11T01:54:00.248Z,15.11
2018-09-11T01:55:00.444Z,14.99
2018-09-11T01:56:00.621Z,15.10
2018-09-11T01:57:00.814Z,14.99
2018-09-11T01:58:01.005Z,15.03
2018-09-11T01:59:01.192Z,15.02
2018-09-11T02:00:01.377Z,15.01
2018-09-11T02:01:01.570Z,15.02
2018-09-11T02:02:01.760Z,15.07
2018-09-11T02:03:01.952Z,15.06
2018-09-11T02:04:02.137Z,15.02
2018-09-11T02:05:02.326Z,14.92
2018-09-11T02:06:02.528Z,14.89
2018-09-11T02:07:02.717Z,14.94
2018-09-11T02:08:02.904Z,14.92
2018-09-11T02:09:03.092Z,14.91
2018-09-11T02:10:03.280Z,14.89
2018-09-11T02:11:03.478Z,14.86
2018-09-11T02:12:03.657Z,14.84
2018-09-11T02:13:03.850Z,14.77
2018-09-11T02:14:04.042Z,14.88
2018-09-11T02:15:04.236Z,14.84
2018-09-11T02:16:04.424Z,14.78
2018-09-11T02:17:04.613Z,14.84
2018-09-11T02:18:04.803Z,14.78
2018-09-11T02:19:04.990Z,14.80
2018-09-11T02:20:05.188Z,14.77
2018-09-11T02:21:05.376Z,14.72
2018-09-11T02:22:05.565Z,14.81
2018-09-11T02:23:05.755Z,14.70
2018-09-11T02:24:05.943Z,14.70
2018-09-11T02:25:06.132Z,14.72
2018-09-11T02:26:06.324Z,14.64
2018-09-11T02:27:06.514Z,14.61
2018-09-11T02:28:06.699Z,14.57
2018-09-11T02:29:06.901Z,14.60
2018-09-11T02:30:07.091Z,14.57
2018-09-11T02:31:07.279Z,14.70
2018-09-11T02:32:07.475Z,14.58
2018-09-11T02:33:07.655Z,14.61
2018-09-11T02:34:07.842Z,14.52
2018-09-11T02:35:08.032Z,14.43
2018-09-11T02:36:08.217Z,14.51
2018-09-11T02:37:08.407Z,14.55
2018-09-11T02:38:08.602Z,14.51
2018-09-11T02:39:08.795Z,14.40
2018-09-11T02:40:08.987Z,14.43
2018-09-11T02:41:09.170Z,14.47
2018-09-11T02:42:09.359Z,14.33
2018-09-11T02:43:09.550Z,14.35
2018-09-11T02:44:09.743Z,14.29
2018-09-11T02:45:09.936Z,14.35
2018-09-11T02:46:10.120Z,14.33
2018-09-11T02:47:10.319Z,14.35
2018-09-11T02:48:10.504Z,14.27
2018-09-11T02:49:10.687Z,14.35
2018-09-11T02:50:10.877Z,14.33
2018-09-11T02:51:11.082Z,14.33
2018-09-11T02:52:11.256Z,14.35
2018-09-11T02:53:11.441Z,14.33
2018-09-11T02:54:11.632Z,14.29
2018-09-11T02:55:11.818Z,14.32
2018-09-11T02:56:12.006Z,14.37
2018-09-11T02:57:12.199Z,14.21
2018-09-11T02:58:12.388Z,14.21
2018-09-11T02:59:12.578Z,14.32
2018-09-11T03:00:12.773Z,14.24
2018-09-11T03:01:12.965Z,14.20
2018-09-11T03:02:13.150Z,14.20
2018-09-11T03:03:13.337Z,14.22
2018-09-11T03:04:13.526Z,14.17
2018-09-11T03:05:13.722Z,14.15
2018-09-11T03:06:13.904Z,14.20
2018-09-11T03:07:14.096Z,14.12
2018-09-11T03:08:14.276Z,14.03
2018-09-11T03:09:14.468Z,14.09
2018-09-11T03:10:14.656Z,14.02
2018-09-11T03:11:14.846Z,14.03
2018-09-11T03:12:15.036Z,13.97
2018-09-11T03:13:15.225Z,13.87
2018-09-11T03:14:15.412Z,13.79
2018-09-11T03:15:15.606Z,13.87
2018-09-11T03:16:15.793Z,13.82
2018-09-11T03:17:15.980Z,13.79
2018-09-11T03:18:16.171Z,13.70
2018-09-11T03:19:16.360Z,13.63
2018-09-11T03:20:16.547Z,13.66
2018-09-11T03:21:16.739Z,13.57
2018-09-11T03:22:16.927Z,13.55
2018-09-11T03:23:17.113Z,13.42
2018-09-11T03:24:17.300Z,13.49
2018-09-11T03:25:17.485Z,13.44
2018-09-11T03:26:17.681Z,13.26
2018-09-11T03:27:17.873Z,13.26
2018-09-11T03:28:18.069Z,13.20
2018-09-11T03:29:18.254Z,13.11
2018-09-11T03:30:18.440Z,13.12
2018-09-11T03:31:18.631Z,13.15
2018-09-11T03:32:18.820Z,13.11
2018-09-11T03:33:19.012Z,13.07
2018-09-11T03:34:19.189Z,13.10
2018-09-11T03:35:19.377Z,13.17
2018-09-11T03:36:20.040Z,13.11
2018-09-11T03:37:19.750Z,13.15
2018-09-11T03:38:19.941Z,13.10
2018-09-11T03:39:20.135Z,13.07
2018-09-11T03:40:20.340Z,13.14
2018-09-11T03:41:20.527Z,13.07
2018-09-11T03:42:20.711Z,13.01
2018-09-11T03:43:20.900Z,13.15
2018-09-11T03:44:21.137Z,12.97
2018-09-11T03:45:21.276Z,12.97
2018-09-11T03:46:21.465Z,12.97
2018-09-11T03:47:21.651Z,13.00
2018-09-11T03:48:21.843Z,13.03
2018-09-11T03:49:22.029Z,12.95
2018-09-11T03:50:22.221Z,12.86
2018-09-11T03:51:22.408Z,12.87
2018-09-11T03:52:22.592Z,12.95
2018-09-11T03:53:22.778Z,12.95
2018-09-11T03:54:22.981Z,12.96
2018-09-11T03:55:23.166Z,12.96
2018-09-11T03:56:23.369Z,12.92
2018-09-11T03:57:23.558Z,12.93
2018-09-11T03:58:23.747Z,12.95
2018-09-11T03:59:23.961Z,12.96
2018-09-11T04:00:24.140Z,13.00
2018-09-11T04:01:24.329Z,12.95
2018-09-11T04:02:24.515Z,12.96
2018-09-11T04:03:24.702Z,12.95
2018-09-11T04:04:24.887Z,13.00
2018-09-11T04:05:25.119Z,12.96
2018-09-11T04:06:25.268Z,12.95
2018-09-11T04:07:25.460Z,12.92
2018-09-11T04:08:25.643Z,12.92
2018-09-11T04:09:25.830Z,12.97
2018-09-11T04:10:26.023Z,12.96
2018-09-11T04:11:26.206Z,12.89
2018-09-11T04:12:26.397Z,13.03
2018-09-11T04:13:26.590Z,13.03
2018-09-11T04:14:26.770Z,13.01
2018-09-11T04:15:26.959Z,13.03
2018-09-11T04:16:27.149Z,12.97
2018-09-11T04:17:27.336Z,13.04
2018-09-11T04:18:27.524Z,13.03
2018-09-11T04:19:27.712Z,12.95
2018-09-11T04:20:27.902Z,13.00
2018-09-11T04:21:28.095Z,13.03
2018-09-11T04:22:28.291Z,12.97
2018-09-11T04:23:28.480Z,12.96
2018-09-11T04:24:28.672Z,12.97
2018-09-11T04:25:28.900Z,13.00
2018-09-11T04:26:29.057Z,13.04
2018-09-11T04:27:29.242Z,13.03
2018-09-11T04:28:29.424Z,13.01
2018-09-11T04:29:29.619Z,13.11
2018-09-11T04:30:29.804Z,13.07
2018-09-11T04:31:29.990Z,13.11
2018-09-11T04:32:30.182Z,13.11
2018-09-11T04:33:30.372Z,13.12
2018-09-11T04:34:30.554Z,13.12
2018-09-11T04:35:30.743Z,13.11
2018-09-11T04:36:31.008Z,13.17
2018-09-11T04:37:31.125Z,13.22
2018-09-11T04:38:31.320Z,13.26
2018-09-11T04:39:31.511Z,13.25
2018-09-11T04:40:31.694Z,13.25
2018-09-11T04:41:31.884Z,13.20
2018-09-11T04:42:32.076Z,13.26
2018-09-11T04:43:32.262Z,13.23
2018-09-11T04:44:32.452Z,13.14
2018-09-11T04:45:32.643Z,13.22
2018-09-11T04:46:32.829Z,13.28
2018-09-11T04:47:33.019Z,13.28
2018-09-11T04:48:33.219Z,13.28
2018-09-11T04:49:33.404Z,13.30
2018-09-11T04:50:33.593Z,13.32
2018-09-11T04:51:33.791Z,13.29
2018-09-11T04:52:33.976Z,13.30
2018-09-11T04:53:34.168Z,13.41
2018-09-11T04:54:34.357Z,13.32
2018-09-11T04:55:34.546Z,13.29
2018-09-11T04:56:34.734Z,13.32
2018-09-11T04:57:34.934Z,13.33
2018-09-11T04:58:35.126Z,13.33
2018-09-11T04:59:35.308Z,13.42
2018-09-11T05:00:35.495Z,13.38
2018-09-11T05:01:35.686Z,13.49
2018-09-11T05:02:35.878Z,13.41
2018-09-11T05:03:36.061Z,13.45
2018-09-11T05:04:36.247Z,13.54
2018-09-11T05:05:36.434Z,13.59
2018-09-11T05:06:36.622Z,13.60
2018-09-11T05:07:37.547Z,13.59
2018-09-11T05:08:36.986Z,13.60
2018-09-11T05:09:37.182Z,13.67
2018-09-11T05:10:37.394Z,13.75
2018-09-11T05:11:37.582Z,13.63
2018-09-11T05:12:37.769Z,13.82
2018-09-11T05:13:37.964Z,13.85
2018-09-11T05:14:38.153Z,13.84
2018-09-11T05:15:38.347Z,14.04
2018-09-11T05:16:38.537Z,14.07
2018-09-11T05:17:38.730Z,14.10
2018-09-11T05:18:38.920Z,14.14
2018-09-11T05:19:39.113Z,14.15
2018-09-11T05:20:39.300Z,14.20
2018-09-11T05:21:39.485Z,14.18
2018-09-11T05:22:39.706Z,14.15
2018-09-11T05:23:39.875Z,14.17
2018-09-11T05:24:40.061Z,14.18
2018-09-11T05:25:40.254Z,14.25
2018-09-11T05:26:40.447Z,14.28
2018-09-11T05:27:40.640Z,14.29
2018-09-11T05:28:40.827Z,14.22
2018-09-11T05:29:41.014Z,14.32
2018-09-11T05:30:41.203Z,14.32
2018-09-11T05:31:41.398Z,14.25
2018-09-11T05:32:41.579Z,14.36
2018-09-11T05:33:41.768Z,14.40
2018-09-11T05:34:41.956Z,14.47
2018-09-11T05:35:42.145Z,14.45
2018-09-11T05:36:42.340Z,14.54
2018-09-11T05:37:42.527Z,14.61
2018-09-11T05:38:42.725Z,14.50
2018-09-11T05:39:42.918Z,14.55
2018-09-11T05:40:43.112Z,14.68
2018-09-11T05:41:43.300Z,14.69
2018-09-11T05:42:43.493Z,14.60
2018-09-11T05:43:43.677Z,14.70
2018-09-11T05:44:43.872Z,14.81
2018-09-11T05:45:44.069Z,14.86
2018-09-11T05:46:44.261Z,15.06
2018-09-11T05:47:44.454Z,15.23
2018-09-11T05:48:44.638Z,15.49
2018-09-11T05:49:44.839Z,15.74
2018-09-11T05:50:45.022Z,15.93
2018-09-11T05:51:45.214Z,16.30
2018-09-11T05:52:45.406Z,16.68
2018-09-11T05:53:45.600Z,17.03
2018-09-11T05:54:45.788Z,16.97
2018-09-11T05:55:45.979Z,17.21
2018-09-11T05:56:46.176Z,17.26
2018-09-11T05:57:46.366Z,17.41
2018-09-11T05:58:46.552Z,17.66
2018-09-11T05:59:46.743Z,17.78
2018-09-11T06:00:46.937Z,18.11
2018-09-11T06:01:47.129Z,18.39
2018-09-11T06:02:47.317Z,18.80
2018-09-11T06:03:47.509Z,19.02
2018-09-11T06:04:47.702Z,19.33
2018-09-11T06:05:47.975Z,19.58
2018-09-11T06:06:48.102Z,19.88
2018-09-11T06:07:55.139Z,19.63
2018-09-11T06:08:48.443Z,20.11
2018-09-11T06:09:48.635Z,20.35
2018-09-11T06:10:48.828Z,20.52
2018-09-11T06:11:49.023Z,20.88
2018-09-11T06:12:49.219Z,21.07
2018-09-11T06:13:49.407Z,20.94
2018-09-11T06:14:49.604Z,21.12
2018-09-11T06:15:49.798Z,20.77
2018-09-11T06:16:49.991Z,20.91
2018-09-11T06:17:50.182Z,20.67
2018-09-11T06:18:50.378Z,19.77
2018-09-11T06:19:50.572Z,19.48
2018-09-11T06:20:50.767Z,19.87
2018-09-11T06:21:50.964Z,19.69
2018-09-11T06:22:51.177Z,19.62
2018-09-11T06:23:51.368Z,19.71
2018-09-11T06:24:51.565Z,19.83
2018-09-11T06:25:51.835Z,19.69
2018-09-11T06:26:51.954Z,19.71
2018-09-11T06:27:52.145Z,19.39
2018-09-11T06:28:52.345Z,19.37
2018-09-11T06:29:52.540Z,19.59
2018-09-11T06:30:52.732Z,19.44
2018-09-11T06:31:52.925Z,19.39
2018-09-11T06:32:53.131Z,19.55
2018-09-11T06:33:53.327Z,19.62
2018-09-11T06:34:53.520Z,19.86
2018-09-11T06:35:54.571Z,19.59
2018-09-11T06:36:53.915Z,19.71
2018-09-11T06:37:54.102Z,20.16
2018-09-11T06:38:54.301Z,20.02
2018-09-11T06:39:54.492Z,19.78
2018-09-11T06:40:54.692Z,19.73
2018-09-11T06:41:54.893Z,19.68
2018-09-11T06:42:55.577Z,19.54
2018-09-11T06:43:55.264Z,19.33
2018-09-11T06:44:55.456Z,19.06
2018-09-11T06:45:55.654Z,19.18
2018-09-11T06:46:55.860Z,19.41
2018-09-11T06:47:56.048Z,19.54
2018-09-11T06:48:56.240Z,19.59
2018-09-11T06:49:56.436Z,20.06
2018-09-11T06:50:56.637Z,20.18
2018-09-11T06:51:56.833Z,20.23
2018-09-11T06:52:57.042Z,20.29
2018-09-11T06:53:57.233Z,20.84
2018-09-11T06:54:57.428Z,21.01
2018-09-11T06:55:57.630Z,20.85
2018-09-11T06:56:57.818Z,20.98
2018-09-11T06:57:58.030Z,21.12
2018-09-11T06:58:58.263Z,21.16
2018-09-11T06:59:58.420Z,21.44
2018-09-11T07:00:58.623Z,21.32
2018-09-11T07:01:58.866Z,21.25
2018-09-11T07:02:59.010Z,21.25
2018-09-11T07:03:59.207Z,21.91
2018-09-11T07:04:59.396Z,22.35
2018-09-11T07:05:59.590Z,22.97
2018-09-11T07:06:59.787Z,23.58
2018-09-11T07:07:59.979Z,23.80
2018-09-11T07:09:00.182Z,24.12
2018-09-11T07:10:00.378Z,23.63
2018-09-11T07:11:00.570Z,23.85
2018-09-11T07:12:00.766Z,24.22
2018-09-11T07:13:00.962Z,24.35
2018-09-11T07:14:01.162Z,23.42
2018-09-11T07:15:01.361Z,23.65
2018-09-11T07:16:01.556Z,23.91
2018-09-11T07:17:01.755Z,23.16
2018-09-11T07:18:01.949Z,22.60
2018-09-11T07:19:02.162Z,22.17
2018-09-11T07:20:02.666Z,21.61
2018-09-11T07:21:02.551Z,21.29
2018-09-11T07:22:02.759Z,21.03
2018-09-11T07:23:02.953Z,20.94
2018-09-11T07:24:03.148Z,21.03
2018-09-11T07:25:03.342Z,21.17
2018-09-11T07:26:03.607Z,21.29
2018-09-11T07:27:03.739Z,21.49
2018-09-11T07:28:03.937Z,21.35
2018-09-11T07:29:04.131Z,21.22
2018-09-11T07:30:04.324Z,21.35
2018-09-11T07:31:04.521Z,21.71
2018-09-11T07:32:04.721Z,21.67
2018-09-11T07:33:04.917Z,21.22
2018-09-11T07:34:05.115Z,21.64
2018-09-11T07:35:05.306Z,21.92
2018-09-11T07:36:05.503Z,21.88
2018-09-11T07:37:05.706Z,21.83
2018-09-11T07:38:05.900Z,21.99
2018-09-11T07:39:06.096Z,22.00
2018-09-11T07:40:06.291Z,22.05
2018-09-11T07:41:06.489Z,22.67
2018-09-11T07:42:06.684Z,23.02
2018-09-11T07:43:06.884Z,22.61
2018-09-11T07:44:07.076Z,22.25
2018-09-11T07:45:07.274Z,22.46
2018-09-11T07:46:07.473Z,23.20
2018-09-11T07:47:07.664Z,23.90
2018-09-11T07:48:07.869Z,24.05
2018-09-11T07:49:08.068Z,24.32
2018-09-11T07:50:08.263Z,24.27
2018-09-11T07:51:08.473Z,24.43
2018-09-11T07:52:08.669Z,24.10
2018-09-11T07:53:08.869Z,24.30
2018-09-11T07:54:09.067Z,23.69
2018-09-11T07:55:09.269Z,23.85
2018-09-11T07:56:09.470Z,24.05
2018-09-11T07:57:09.667Z,24.78
2018-09-11T07:58:09.975Z,25.05
2018-09-11T07:59:10.085Z,25.51
2018-09-11T08:00:10.272Z,25.72
2018-09-11T08:01:10.468Z,25.91
2018-09-11T08:02:10.668Z,26.09
2018-09-11T08:03:10.958Z,25.57
2018-09-11T08:04:11.070Z,25.95
2018-09-11T08:05:11.288Z,26.21
2018-09-11T08:06:11.468Z,27.06
2018-09-11T08:07:11.668Z,26.99
2018-09-11T08:08:11.863Z,27.31
2018-09-11T08:09:12.068Z,27.87
2018-09-11T08:10:12.266Z,27.78
2018-09-11T08:11:12.465Z,27.43
2018-09-11T08:12:12.664Z,27.55
2018-09-11T08:13:12.867Z,27.37
2018-09-11T08:14:13.066Z,27.18
2018-09-11T08:15:13.267Z,27.13
2018-09-11T08:16:13.524Z,26.67
2018-09-11T08:17:13.668Z,26.77
2018-09-11T08:18:13.885Z,26.65
2018-09-11T08:19:14.071Z,26.87
2018-09-11T08:20:14.278Z,26.69
2018-09-11T08:21:14.484Z,26.82
2018-09-11T08:22:14.683Z,26.81
2018-09-11T08:23:14.884Z,26.72
2018-09-11T08:24:15.089Z,26.76
2018-09-11T08:25:15.298Z,26.47
2018-09-11T08:26:15.502Z,27.34
2018-09-11T08:27:15.711Z,27.17
2018-09-11T08:28:15.906Z,27.47
2018-09-11T08:29:16.117Z,27.34
2018-09-11T08:30:16.305Z,27.02
2018-09-11T08:31:16.508Z,26.80
2018-09-11T08:32:16.716Z,27.43
2018-09-11T08:33:16.924Z,27.66
2018-09-11T08:34:17.147Z,27.63
2018-09-11T08:35:17.327Z,27.72
2018-09-11T08:36:17.529Z,27.99
2018-09-11T08:37:17.728Z,27.66
2018-09-11T08:38:17.938Z,27.27
2018-09-11T08:39:18.138Z,27.60
2018-09-11T08:40:18.341Z,27.32
2018-09-11T08:41:18.543Z,27.47
2018-09-11T08:42:18.745Z,27.24
2018-09-11T08:43:18.953Z,27.50
2018-09-11T08:44:19.144Z,27.17
2018-09-11T08:45:19.410Z,27.19
2018-09-11T08:46:19.607Z,27.44
2018-09-11T08:47:19.809Z,27.41
2018-09-11T08:48:20.012Z,27.88
2018-09-11T08:49:20.214Z,28.07
2018-09-11T08:50:20.423Z,28.11
2018-09-11T08:51:20.620Z,28.37
2018-09-11T08:52:20.846Z,28.14
2018-09-11T08:53:21.040Z,28.12
2018-09-11T08:54:21.248Z,28.49
2018-09-11T08:55:21.446Z,28.76
2018-09-11T08:56:21.650Z,29.04
2018-09-11T08:57:21.858Z,29.42
2018-09-11T08:58:22.098Z,29.39
2018-09-11T08:59:22.258Z,29.15
2018-09-11T09:00:22.461Z,28.86
2018-09-11T09:01:22.666Z,28.66
2018-09-11T09:02:22.870Z,28.52
2018-09-11T09:03:23.072Z,28.85
2018-09-11T09:04:23.271Z,28.48
2018-09-11T09:05:23.475Z,28.33
2018-09-11T09:06:23.677Z,28.92
2018-09-11T09:07:23.883Z,28.81
2018-09-11T09:08:24.094Z,29.04
2018-09-11T09:09:24.290Z,28.77
2018-09-11T09:10:24.493Z,28.81
2018-09-11T09:11:24.696Z,28.96
2018-09-11T09:12:24.907Z,29.18
2018-09-11T09:13:25.101Z,29.21
2018-09-11T09:14:25.301Z,29.39
2018-09-11T09:15:25.508Z,29.42
2018-09-11T09:16:25.708Z,29.60
2018-09-11T09:17:25.909Z,29.31
2018-09-11T09:18:26.113Z,29.60
2018-09-11T09:19:26.316Z,29.73
2018-09-11T09:20:26.520Z,29.31
2018-09-11T09:21:26.720Z,28.74
2018-09-11T09:22:26.924Z,28.56
2018-09-11T09:23:27.124Z,28.40
2018-09-11T09:24:27.330Z,28.95
2018-09-11T09:25:27.522Z,29.05
2018-09-11T09:26:27.733Z,29.14
2018-09-11T09:27:27.945Z,28.04
2018-09-11T09:28:28.136Z,28.12
2018-09-11T09:29:28.340Z,28.37
2018-09-11T09:30:28.540Z,28.74
2018-09-11T09:31:28.740Z,27.92
2018-09-11T09:32:28.951Z,27.12
2018-09-11T09:33:29.152Z,27.46
2018-09-11T09:34:29.358Z,27.84
2018-09-11T09:35:29.559Z,28.49
2018-09-11T09:36:29.778Z,28.46
2018-09-11T09:37:29.965Z,28.54
2018-09-11T09:38:30.166Z,28.04
2018-09-11T09:39:30.379Z,27.54
2018-09-11T09:40:30.576Z,27.75
2018-09-11T09:41:30.777Z,27.78
2018-09-11T09:42:30.979Z,27.66
2018-09-11T09:43:31.187Z,27.44
2018-09-11T09:44:31.396Z,28.11
2018-09-11T09:45:31.602Z,28.39
2018-09-11T09:46:31.802Z,28.71
2018-09-11T09:47:32.000Z,28.89
2018-09-11T09:48:32.204Z,29.11
2018-09-11T09:49:32.410Z,29.64
2018-09-11T09:50:32.605Z,29.94
2018-09-11T09:51:32.808Z,30.39
2018-09-11T09:52:33.007Z,29.80
2018-09-11T09:53:33.212Z,30.08
2018-09-11T09:54:33.413Z,29.85
2018-09-11T09:55:33.616Z,29.28
2018-09-11T09:56:33.820Z,29.39
2018-09-11T09:57:34.022Z,29.51
2018-09-11T09:58:34.223Z,29.37
2018-09-11T09:59:34.431Z,29.26
2018-09-11T10:00:34.622Z,28.70
2018-09-11T10:01:34.832Z,29.26
2018-09-11T10:02:35.035Z,28.41
2018-09-11T10:03:35.236Z,29.00
2018-09-11T10:04:35.441Z,29.21
2018-09-11T10:05:35.651Z,29.67
2018-09-11T10:06:35.850Z,30.10
2018-09-11T10:07:36.063Z,29.39
2018-09-11T10:08:36.267Z,29.28
2018-09-11T10:09:36.469Z,29.05
2018-09-11T10:10:36.665Z,28.83
2018-09-11T10:11:36.880Z,28.85
2018-09-11T10:12:37.067Z,29.18
2018-09-11T10:13:37.270Z,29.74
2018-09-11T10:14:37.478Z,29.82
2018-09-11T10:15:37.678Z,29.70
2018-09-11T10:16:37.875Z,29.42
2018-09-11T10:17:38.154Z,29.87
2018-09-11T10:18:38.281Z,29.61
2018-09-11T10:19:38.488Z,29.83
2018-09-11T10:20:38.687Z,29.63
2018-09-11T10:21:38.891Z,29.30
2018-09-11T10:22:39.094Z,28.96
2018-09-11T10:23:39.293Z,28.56
2018-09-11T10:24:39.507Z,28.34
2018-09-11T10:25:39.720Z,28.64
2018-09-11T10:26:39.926Z,28.49
2018-09-11T10:27:40.189Z,28.54
2018-09-11T10:28:40.329Z,28.19
2018-09-11T10:29:40.532Z,28.17
2018-09-11T10:30:40.733Z,27.70
2018-09-11T10:31:40.930Z,28.06
2018-09-11T10:32:41.135Z,28.52
2018-09-11T10:33:41.375Z,29.23
2018-09-11T10:34:42.161Z,28.52
2018-09-11T10:35:41.725Z,28.29
2018-09-11T10:36:41.925Z,28.12
2018-09-11T10:37:42.130Z,28.54
2018-09-11T10:38:42.330Z,28.74
2018-09-11T10:39:42.532Z,29.02
2018-09-11T10:40:42.733Z,29.63
2018-09-11T10:41:42.938Z,29.06
2018-09-11T10:42:43.139Z,28.89
2018-09-11T10:43:43.347Z,29.15
2018-09-11T10:44:43.548Z,28.62
2018-09-11T10:45:43.756Z,28.68
2018-09-11T10:46:43.955Z,29.31
2018-09-11T10:47:44.161Z,29.39
2018-09-11T10:48:44.405Z,29.12
2018-09-11T10:49:44.562Z,29.28
2018-09-11T10:50:44.767Z,29.65
2018-09-11T10:51:44.981Z,28.59
2018-09-11T10:52:45.173Z,28.55
2018-09-11T10:53:45.378Z,28.89
2018-09-11T10:54:45.576Z,28.58
2018-09-11T10:55:45.775Z,28.78
2018-09-11T10:56:45.977Z,28.68
2018-09-11T10:57:46.173Z,29.14
2018-09-11T10:58:46.375Z,29.30
2018-09-11T10:59:46.579Z,29.33
2018-09-11T11:00:46.779Z,30.34
2018-09-11T11:01:46.983Z,30.49
2018-09-11T11:02:47.174Z,30.35
2018-09-11T11:03:47.376Z,30.02
2018-09-11T11:04:47.583Z,29.70
2018-09-11T11:05:47.784Z,29.79
2018-09-11T11:06:47.986Z,28.88
2018-09-11T11:07:48.188Z,29.05
2018-09-11T11:08:48.382Z,28.98
2018-09-11T11:09:48.587Z,29.19
2018-09-11T11:10:48.785Z,29.02
2018-09-11T11:11:48.988Z,28.44
2018-09-11T11:12:49.188Z,28.83
2018-09-11T11:13:49.392Z,29.27
2018-09-11T11:14:49.596Z,29.85
2018-09-11T11:15:49.800Z,29.36
2018-09-11T11:16:50.000Z,29.79
2018-09-11T11:17:50.203Z,30.07
2018-09-11T11:18:50.401Z,29.11
2018-09-11T11:19:50.598Z,29.43
2018-09-11T11:20:50.798Z,29.11
2018-09-11T11:21:51.007Z,29.43
2018-09-11T11:22:51.211Z,29.68
2018-09-11T11:23:51.418Z,29.76
2018-09-11T11:24:51.621Z,29.97
2018-09-11T11:25:51.825Z,29.85
2018-09-11T11:26:52.072Z,29.37
2018-09-11T11:27:52.227Z,29.61
2018-09-11T11:28:52.424Z,29.87
2018-09-11T11:29:52.623Z,29.53
2018-09-11T11:30:52.828Z,29.51
2018-09-11T11:31:53.038Z,29.78
2018-09-11T11:32:53.236Z,30.02
2018-09-11T11:33:53.443Z,30.01
2018-09-11T11:34:53.645Z,29.87
2018-09-11T11:35:53.900Z,29.30
2018-09-11T11:36:54.200Z,28.89
2018-09-11T11:37:54.252Z,28.58
2018-09-11T11:38:54.455Z,28.76
2018-09-11T11:39:54.653Z,29.21
2018-09-11T11:40:54.858Z,29.05
2018-09-11T11:41:55.092Z,29.18
2018-09-11T11:42:55.300Z,29.27
2018-09-11T11:43:55.466Z,29.42
2018-09-11T11:44:55.663Z,29.74
2018-09-11T11:45:55.864Z,30.08
2018-09-11T11:46:56.062Z,30.19
2018-09-11T11:47:56.261Z,29.89
2018-09-11T11:48:56.466Z,29.78
2018-09-11T11:49:56.663Z,29.92
2018-09-11T11:50:56.872Z,29.36
2018-09-11T11:51:57.070Z,29.28
2018-09-11T11:52:57.270Z,28.80
2018-09-11T11:53:57.470Z,28.44
2018-09-11T11:54:57.726Z,27.69
2018-09-11T11:55:57.871Z,27.81
2018-09-11T11:56:58.066Z,28.00
2018-09-11T11:57:58.273Z,27.93
2018-09-11T11:58:58.466Z,27.82
2018-09-11T11:59:58.671Z,27.84
2018-09-11T12:00:58.871Z,27.93
2018-09-11T12:01:59.123Z,27.79
2018-09-11T12:02:59.275Z,27.92
2018-09-11T12:03:59.471Z,28.15
2018-09-11T12:04:59.667Z,28.00
2018-09-11T12:05:59.872Z,27.90
2018-09-11T12:07:00.070Z,27.81
2018-09-11T12:08:00.266Z,27.97
2018-09-11T12:09:00.463Z,27.97
2018-09-11T12:10:00.657Z,27.79
2018-09-11T12:11:00.860Z,27.63
2018-09-11T12:12:01.055Z,27.41
2018-09-11T12:13:01.255Z,27.62
2018-09-11T12:14:01.452Z,27.67
2018-09-11T12:15:01.661Z,27.79
2018-09-11T12:16:01.986Z,27.72
2018-09-11T12:17:02.042Z,27.77
2018-09-11T12:18:02.239Z,27.99
2018-09-11T12:19:02.439Z,28.00
2018-09-11T12:20:02.624Z,28.00
2018-09-11T12:21:02.832Z,28.19
2018-09-11T12:22:03.034Z,27.96
2018-09-11T12:23:03.228Z,27.93
2018-09-11T12:24:03.434Z,28.04
2018-09-11T12:25:03.633Z,28.18
2018-09-11T12:26:03.825Z,28.12
2018-09-11T12:27:04.028Z,28.15
2018-09-11T12:28:04.230Z,28.09
2018-09-11T12:29:04.426Z,28.17
2018-09-11T12:30:04.621Z,28.24
2018-09-11T12:31:04.981Z,28.14
2018-09-11T12:32:05.044Z,27.96
2018-09-11T12:33:05.244Z,27.75
2018-09-11T12:34:05.561Z,27.54
2018-09-11T12:35:05.678Z,27.82
2018-09-11T12:36:05.871Z,27.78
2018-09-11T12:37:06.046Z,27.88
2018-09-11T12:38:06.440Z,27.66
2018-09-11T12:39:06.478Z,27.49
2018-09-11T12:40:06.677Z,27.34
2018-09-11T12:41:06.868Z,27.51
2018-09-11T12:42:07.227Z,27.57
2018-09-11T12:43:07.314Z,27.70
2018-09-11T12:44:07.485Z,27.75
2018-09-11T12:45:07.663Z,27.78
2018-09-11T12:46:08.117Z,27.69
2018-09-11T12:47:08.320Z,27.94
2018-09-11T12:48:08.666Z,27.72
2018-09-11T12:49:08.445Z,27.87
2018-09-11T12:50:08.667Z,27.70
2018-09-11T12:51:08.851Z,27.60
2018-09-11T12:52:09.040Z,27.69
2018-09-11T12:53:09.230Z,27.78
2018-09-11T12:54:09.434Z,27.88
2018-09-11T12:55:09.630Z,27.88
2018-09-11T12:56:09.823Z,28.00
2018-09-11T12:57:10.030Z,27.88